sensor_id;sensor_type;location;lat;lon;timestamp;P1;durP1;ratioP1;P2;durP2;ratioP2
17169;SDS011;8700;48.222;16.342;2023-01-08T00:02:31;53.73;;;43.47;;
17169;SDS011;8700;48.222;16.342;2023-01-08T00:05:52;52.57;;;43.07;;
17169;SDS011;8700;48.222;16.342;2023-01-08T00:09:14;59.67;;;45.87;;
17169;SDS011;8700;48.222;16.342;2023-01-08T00:12:36;50.67;;;42.17;;
17169;SDS011;8700;48.222;16.342;2023-01-08T00:16:01;53.93;;;41.57;;
17169;SDS011;8700;48.222;16.342;2023-01-08T00:19:25;54.93;;;43.73;;
17169;SDS011;8700;48.222;16.342;2023-01-08T00:22:47;55.60;;;44.27;;
17169;SDS011;8700;48.222;16.342;2023-01-08T00:26:09;57.27;;;45.77;;
17169;SDS011;8700;48.222;16.342;2023-01-08T00:29:32;54.23;;;46.87;;
17169;SDS011;8700;48.222;16.342;2023-01-08T00:32:54;59.03;;;47.03;;
17169;SDS011;8700;48.222;16.342;2023-01-08T00:36:16;54.73;;;45.77;;
17169;SDS011;8700;48.222;16.342;2023-01-08T00:39:39;58.10;;;45.43;;
17169;SDS011;8700;48.222;16.342;2023-01-08T00:43:00;57.67;;;45.57;;
17169;SDS011;8700;48.222;16.342;2023-01-08T00:46:23;55.60;;;44.33;;
17169;SDS011;8700;48.222;16.342;2023-01-08T00:49:45;60.57;;;47.57;;
17169;SDS011;8700;48.222;16.342;2023-01-08T00:53:06;65.20;;;49.53;;
17169;SDS011;8700;48.222;16.342;2023-01-08T00:56:27;58.43;;;49.23;;
17169;SDS011;8700;48.222;16.342;2023-01-08T00:59:48;64.27;;;47.80;;
17169;SDS011;8700;48.222;16.342;2023-01-08T01:03:12;60.43;;;44.70;;
17169;SDS011;8700;48.222;16.342;2023-01-08T01:06:34;58.27;;;47.73;;
17169;SDS011;8700;48.222;16.342;2023-01-08T01:10:01;55.67;;;45.97;;
17169;SDS011;8700;48.222;16.342;2023-01-08T01:13:23;59.67;;;47.73;;
17169;SDS011;8700;48.222;16.342;2023-01-08T01:16:44;59.30;;;44.80;;
17169;SDS011;8700;48.222;16.342;2023-01-08T01:20:09;57.37;;;46.53;;
17169;SDS011;8700;48.222;16.342;2023-01-08T01:23:34;60.60;;;46.53;;
17169;SDS011;8700;48.222;16.342;2023-01-08T01:26:55;58.87;;;44.77;;
17169;SDS011;8700;48.222;16.342;2023-01-08T01:30:19;55.60;;;44.63;;
17169;SDS011;8700;48.222;16.342;2023-01-08T01:33:40;61.90;;;45.40;;
17169;SDS011;8700;48.222;16.342;2023-01-08T01:37:03;53.37;;;40.53;;
17169;SDS011;8700;48.222;16.342;2023-01-08T01:40:25;57.90;;;45.87;;
17169;SDS011;8700;48.222;16.342;2023-01-08T01:43:47;60.13;;;43.10;;
17169;SDS011;8700;48.222;16.342;2023-01-08T01:47:10;50.37;;;42.10;;
17169;SDS011;8700;48.222;16.342;2023-01-08T01:50:40;60.13;;;45.87;;
17169;SDS011;8700;48.222;16.342;2023-01-08T01:54:06;62.07;;;46.23;;
17169;SDS011;8700;48.222;16.342;2023-01-08T01:57:30;53.80;;;43.77;;
17169;SDS011;8700;48.222;16.342;2023-01-08T02:00:52;60.00;;;44.83;;
17169;SDS011;8700;48.222;16.342;2023-01-08T02:04:15;57.37;;;43.40;;
17169;SDS011;8700;48.222;16.342;2023-01-08T02:07:39;57.50;;;44.87;;
17169;SDS011;8700;48.222;16.342;2023-01-08T02:11:10;54.77;;;43.13;;
17169;SDS011;8700;48.222;16.342;2023-01-08T02:14:36;54.07;;;41.80;;
17169;SDS011;8700;48.222;16.342;2023-01-08T02:18:04;59.67;;;44.50;;
17169;SDS011;8700;48.222;16.342;2023-01-08T02:21:30;59.87;;;43.03;;
17169;SDS011;8700;48.222;16.342;2023-01-08T02:25:00;59.03;;;45.13;;
17169;SDS011;8700;48.222;16.342;2023-01-08T02:28:30;56.93;;;43.40;;
17169;SDS011;8700;48.222;16.342;2023-01-08T02:31:56;55.87;;;44.83;;
17169;SDS011;8700;48.222;16.342;2023-01-08T02:35:20;59.60;;;43.03;;
17169;SDS011;8700;48.222;16.342;2023-01-08T02:38:44;60.50;;;44.90;;
17169;SDS011;8700;48.222;16.342;2023-01-08T02:42:12;60.23;;;45.63;;
17169;SDS011;8700;48.222;16.342;2023-01-08T02:45:44;55.83;;;43.10;;
17169;SDS011;8700;48.222;16.342;2023-01-08T02:49:08;52.77;;;42.10;;
17169;SDS011;8700;48.222;16.342;2023-01-08T02:52:33;54.73;;;41.07;;
17169;SDS011;8700;48.222;16.342;2023-01-08T02:56:01;50.17;;;40.37;;
17169;SDS011;8700;48.222;16.342;2023-01-08T02:59:27;60.53;;;44.67;;
17169;SDS011;8700;48.222;16.342;2023-01-08T03:02:53;55.13;;;44.60;;
17169;SDS011;8700;48.222;16.342;2023-01-08T03:06:23;62.27;;;44.73;;
17169;SDS011;8700;48.222;16.342;2023-01-08T03:09:47;56.80;;;44.87;;
17169;SDS011;8700;48.222;16.342;2023-01-08T03:13:10;60.37;;;44.50;;
17169;SDS011;8700;48.222;16.342;2023-01-08T03:16:35;56.50;;;41.77;;
17169;SDS011;8700;48.222;16.342;2023-01-08T03:20:00;58.77;;;43.27;;
17169;SDS011;8700;48.222;16.342;2023-01-08T03:23:26;57.50;;;41.23;;
17169;SDS011;8700;48.222;16.342;2023-01-08T03:26:49;53.30;;;43.47;;
17169;SDS011;8700;48.222;16.342;2023-01-08T03:30:15;59.70;;;44.50;;
17169;SDS011;8700;48.222;16.342;2023-01-08T03:33:40;63.50;;;43.90;;
17169;SDS011;8700;48.222;16.342;2023-01-08T03:37:04;55.83;;;45.93;;
17169;SDS011;8700;48.222;16.342;2023-01-08T03:40:28;56.27;;;41.20;;
17169;SDS011;8700;48.222;16.342;2023-01-08T03:43:54;55.07;;;42.63;;
17169;SDS011;8700;48.222;16.342;2023-01-08T03:47:16;56.37;;;42.43;;
17169;SDS011;8700;48.222;16.342;2023-01-08T03:50:40;57.03;;;41.40;;
17169;SDS011;8700;48.222;16.342;2023-01-08T03:54:02;55.00;;;41.23;;
17169;SDS011;8700;48.222;16.342;2023-01-08T03:57:24;56.27;;;42.07;;
17169;SDS011;8700;48.222;16.342;2023-01-08T04:00:45;51.93;;;40.30;;
17169;SDS011;8700;48.222;16.342;2023-01-08T04:04:06;55.10;;;41.77;;
17169;SDS011;8700;48.222;16.342;2023-01-08T04:07:28;57.30;;;42.33;;
17169;SDS011;8700;48.222;16.342;2023-01-08T04:10:51;61.60;;;42.80;;
17169;SDS011;8700;48.222;16.342;2023-01-08T04:14:12;53.80;;;40.93;;
17169;SDS011;8700;48.222;16.342;2023-01-08T04:17:33;57.20;;;42.50;;
17169;SDS011;8700;48.222;16.342;2023-01-08T04:20:55;59.07;;;42.53;;
17169;SDS011;8700;48.222;16.342;2023-01-08T04:24:16;59.90;;;44.23;;
17169;SDS011;8700;48.222;16.342;2023-01-08T04:27:40;59.03;;;42.73;;
17169;SDS011;8700;48.222;16.342;2023-01-08T04:31:03;57.50;;;43.20;;
17169;SDS011;8700;48.222;16.342;2023-01-08T04:34:28;54.90;;;41.43;;
17169;SDS011;8700;48.222;16.342;2023-01-08T04:37:50;58.87;;;40.97;;
17169;SDS011;8700;48.222;16.342;2023-01-08T04:41:11;57.40;;;41.20;;
17169;SDS011;8700;48.222;16.342;2023-01-08T04:44:41;58.97;;;40.77;;
17169;SDS011;8700;48.222;16.342;2023-01-08T04:48:02;56.67;;;40.20;;
17169;SDS011;8700;48.222;16.342;2023-01-08T04:51:27;51.97;;;39.63;;
17169;SDS011;8700;48.222;16.342;2023-01-08T04:54:51;55.67;;;39.93;;
17169;SDS011;8700;48.222;16.342;2023-01-08T04:58:21;55.57;;;38.40;;
17169;SDS011;8700;48.222;16.342;2023-01-08T05:01:45;54.03;;;38.77;;
17169;SDS011;8700;48.222;16.342;2023-01-08T05:05:08;56.53;;;43.07;;
17169;SDS011;8700;48.222;16.342;2023-01-08T05:08:34;54.03;;;40.30;;
17169;SDS011;8700;48.222;16.342;2023-01-08T05:11:56;57.33;;;39.53;;
17169;SDS011;8700;48.222;16.342;2023-01-08T05:15:18;58.60;;;42.63;;
17169;SDS011;8700;48.222;16.342;2023-01-08T05:18:41;55.63;;;39.77;;
17169;SDS011;8700;48.222;16.342;2023-01-08T05:22:02;56.00;;;39.97;;
17169;SDS011;8700;48.222;16.342;2023-01-08T05:25:26;56.00;;;40.83;;
17169;SDS011;8700;48.222;16.342;2023-01-08T05:28:47;57.60;;;41.63;;
17169;SDS011;8700;48.222;16.342;2023-01-08T05:32:09;58.67;;;42.50;;
17169;SDS011;8700;48.222;16.342;2023-01-08T05:35:38;56.30;;;42.07;;
17169;SDS011;8700;48.222;16.342;2023-01-08T05:39:00;58.10;;;40.67;;
17169;SDS011;8700;48.222;16.342;2023-01-08T05:42:21;59.67;;;42.10;;
17169;SDS011;8700;48.222;16.342;2023-01-08T05:45:42;58.33;;;40.73;;
17169;SDS011;8700;48.222;16.342;2023-01-08T05:49:03;53.73;;;40.50;;
17169;SDS011;8700;48.222;16.342;2023-01-08T05:52:26;54.93;;;41.70;;
17169;SDS011;8700;48.222;16.342;2023-01-08T05:55:48;57.20;;;40.63;;
17169;SDS011;8700;48.222;16.342;2023-01-08T05:59:10;49.80;;;38.20;;
17169;SDS011;8700;48.222;16.342;2023-01-08T06:02:31;53.33;;;38.83;;
17169;SDS011;8700;48.222;16.342;2023-01-08T06:05:56;55.00;;;37.80;;
17169;SDS011;8700;48.222;16.342;2023-01-08T06:09:19;52.10;;;38.33;;
17169;SDS011;8700;48.222;16.342;2023-01-08T06:12:41;56.90;;;39.63;;
17169;SDS011;8700;48.222;16.342;2023-01-08T06:16:02;57.33;;;39.40;;
17169;SDS011;8700;48.222;16.342;2023-01-08T06:19:24;56.47;;;40.23;;
17169;SDS011;8700;48.222;16.342;2023-01-08T06:22:45;62.47;;;39.97;;
17169;SDS011;8700;48.222;16.342;2023-01-08T06:26:08;56.00;;;38.50;;
17169;SDS011;8700;48.222;16.342;2023-01-08T06:29:29;49.47;;;36.53;;
17169;SDS011;8700;48.222;16.342;2023-01-08T06:32:54;52.17;;;36.10;;
17169;SDS011;8700;48.222;16.342;2023-01-08T06:36:15;55.07;;;36.73;;
17169;SDS011;8700;48.222;16.342;2023-01-08T06:39:41;63.20;;;37.53;;
17169;SDS011;8700;48.222;16.342;2023-01-08T06:43:04;54.00;;;37.00;;
17169;SDS011;8700;48.222;16.342;2023-01-08T06:46:26;55.23;;;38.03;;
17169;SDS011;8700;48.222;16.342;2023-01-08T06:49:48;56.80;;;37.70;;
17169;SDS011;8700;48.222;16.342;2023-01-08T06:53:09;61.40;;;41.53;;
17169;SDS011;8700;48.222;16.342;2023-01-08T06:56:30;56.43;;;38.70;;
17169;SDS011;8700;48.222;16.342;2023-01-08T06:59:53;57.23;;;38.87;;
17169;SDS011;8700;48.222;16.342;2023-01-08T07:03:14;60.00;;;38.63;;
17169;SDS011;8700;48.222;16.342;2023-01-08T07:06:35;55.13;;;41.33;;
17169;SDS011;8700;48.222;16.342;2023-01-08T07:09:56;55.00;;;37.77;;
17169;SDS011;8700;48.222;16.342;2023-01-08T07:13:18;56.03;;;39.43;;
17169;SDS011;8700;48.222;16.342;2023-01-08T07:16:42;50.77;;;36.73;;
17169;SDS011;8700;48.222;16.342;2023-01-08T07:20:04;53.67;;;37.40;;
17169;SDS011;8700;48.222;16.342;2023-01-08T07:23:26;52.03;;;37.13;;
17169;SDS011;8700;48.222;16.342;2023-01-08T07:26:47;47.13;;;36.00;;
17169;SDS011;8700;48.222;16.342;2023-01-08T07:30:09;50.20;;;33.93;;
17169;SDS011;8700;48.222;16.342;2023-01-08T07:33:31;49.63;;;34.67;;
17169;SDS011;8700;48.222;16.342;2023-01-08T07:36:53;43.83;;;35.13;;
17169;SDS011;8700;48.222;16.342;2023-01-08T07:40:14;47.30;;;35.07;;
17169;SDS011;8700;48.222;16.342;2023-01-08T07:43:35;47.33;;;34.87;;
17169;SDS011;8700;48.222;16.342;2023-01-08T07:46:56;49.33;;;37.40;;
17169;SDS011;8700;48.222;16.342;2023-01-08T07:50:19;49.37;;;35.37;;
17169;SDS011;8700;48.222;16.342;2023-01-08T07:53:40;52.37;;;35.40;;
17169;SDS011;8700;48.222;16.342;2023-01-08T07:57:02;47.83;;;34.40;;
17169;SDS011;8700;48.222;16.342;2023-01-08T08:00:26;50.80;;;35.10;;
17169;SDS011;8700;48.222;16.342;2023-01-08T08:03:51;47.87;;;34.50;;
17169;SDS011;8700;48.222;16.342;2023-01-08T08:07:16;50.13;;;34.17;;
17169;SDS011;8700;48.222;16.342;2023-01-08T08:10:39;46.37;;;33.53;;
17169;SDS011;8700;48.222;16.342;2023-01-08T08:14:06;48.60;;;34.37;;
17169;SDS011;8700;48.222;16.342;2023-01-08T08:17:31;49.13;;;34.70;;
17169;SDS011;8700;48.222;16.342;2023-01-08T08:20:55;50.93;;;35.03;;
17169;SDS011;8700;48.222;16.342;2023-01-08T08:24:19;49.23;;;35.10;;
17169;SDS011;8700;48.222;16.342;2023-01-08T08:27:40;48.50;;;35.23;;
17169;SDS011;8700;48.222;16.342;2023-01-08T08:31:01;49.33;;;34.50;;
17169;SDS011;8700;48.222;16.342;2023-01-08T08:34:23;52.80;;;36.70;;
17169;SDS011;8700;48.222;16.342;2023-01-08T08:37:44;50.77;;;36.13;;
17169;SDS011;8700;48.222;16.342;2023-01-08T08:41:06;50.80;;;35.27;;
17169;SDS011;8700;48.222;16.342;2023-01-08T08:44:28;42.27;;;34.40;;
17169;SDS011;8700;48.222;16.342;2023-01-08T08:47:49;49.57;;;34.27;;
17169;SDS011;8700;48.222;16.342;2023-01-08T08:51:10;50.30;;;34.43;;
17169;SDS011;8700;48.222;16.342;2023-01-08T08:54:33;47.40;;;33.63;;
17169;SDS011;8700;48.222;16.342;2023-01-08T08:58:02;48.87;;;35.43;;
17169;SDS011;8700;48.222;16.342;2023-01-08T09:01:25;51.57;;;33.80;;
17169;SDS011;8700;48.222;16.342;2023-01-08T09:04:46;48.13;;;34.90;;
17169;SDS011;8700;48.222;16.342;2023-01-08T09:08:08;50.03;;;32.17;;
17169;SDS011;8700;48.222;16.342;2023-01-08T09:11:29;51.17;;;34.13;;
17169;SDS011;8700;48.222;16.342;2023-01-08T09:14:52;49.93;;;33.57;;
17169;SDS011;8700;48.222;16.342;2023-01-08T09:18:15;48.27;;;33.60;;
17169;SDS011;8700;48.222;16.342;2023-01-08T09:21:37;50.77;;;34.17;;
17169;SDS011;8700;48.222;16.342;2023-01-08T09:24:59;43.97;;;31.37;;
17169;SDS011;8700;48.222;16.342;2023-01-08T09:28:20;49.83;;;33.93;;
17169;SDS011;8700;48.222;16.342;2023-01-08T09:31:43;45.83;;;31.40;;
17169;SDS011;8700;48.222;16.342;2023-01-08T09:35:05;46.40;;;31.87;;
17169;SDS011;8700;48.222;16.342;2023-01-08T09:38:26;46.83;;;32.93;;
17169;SDS011;8700;48.222;16.342;2023-01-08T09:41:48;45.60;;;33.67;;
17169;SDS011;8700;48.222;16.342;2023-01-08T09:45:15;43.57;;;31.60;;
17169;SDS011;8700;48.222;16.342;2023-01-08T09:48:47;50.60;;;33.67;;
17169;SDS011;8700;48.222;16.342;2023-01-08T09:52:09;53.10;;;33.30;;
17169;SDS011;8700;48.222;16.342;2023-01-08T09:55:32;42.47;;;30.83;;
17169;SDS011;8700;48.222;16.342;2023-01-08T09:58:54;45.97;;;31.97;;
17169;SDS011;8700;48.222;16.342;2023-01-08T10:02:23;48.93;;;32.03;;
17169;SDS011;8700;48.222;16.342;2023-01-08T10:05:50;46.00;;;31.63;;
17169;SDS011;8700;48.222;16.342;2023-01-08T10:09:11;44.17;;;30.37;;
17169;SDS011;8700;48.222;16.342;2023-01-08T10:12:35;41.97;;;29.47;;
17169;SDS011;8700;48.222;16.342;2023-01-08T10:16:01;44.37;;;28.77;;
17169;SDS011;8700;48.222;16.342;2023-01-08T10:19:27;45.97;;;29.87;;
17169;SDS011;8700;48.222;16.342;2023-01-08T10:22:50;42.23;;;28.53;;
17169;SDS011;8700;48.222;16.342;2023-01-08T10:26:13;40.07;;;27.27;;
17169;SDS011;8700;48.222;16.342;2023-01-08T10:29:48;39.77;;;28.03;;
17169;SDS011;8700;48.222;16.342;2023-01-08T10:33:10;39.60;;;29.80;;
17169;SDS011;8700;48.222;16.342;2023-01-08T10:36:42;42.30;;;28.70;;
17169;SDS011;8700;48.222;16.342;2023-01-08T10:40:13;39.57;;;28.37;;
17169;SDS011;8700;48.222;16.342;2023-01-08T10:43:43;38.43;;;28.83;;
17169;SDS011;8700;48.222;16.342;2023-01-08T10:47:12;40.70;;;28.93;;
17169;SDS011;8700;48.222;16.342;2023-01-08T10:50:39;42.10;;;28.43;;
17169;SDS011;8700;48.222;16.342;2023-01-08T10:54:11;40.80;;;30.40;;
17169;SDS011;8700;48.222;16.342;2023-01-08T10:57:35;40.53;;;29.93;;
17169;SDS011;8700;48.222;16.342;2023-01-08T11:01:07;37.17;;;27.83;;
17169;SDS011;8700;48.222;16.342;2023-01-08T11:04:30;40.33;;;29.17;;
17169;SDS011;8700;48.222;16.342;2023-01-08T11:07:54;44.10;;;28.80;;
17169;SDS011;8700;48.222;16.342;2023-01-08T11:11:18;39.77;;;27.87;;
17169;SDS011;8700;48.222;16.342;2023-01-08T11:14:42;39.57;;;30.47;;
17169;SDS011;8700;48.222;16.342;2023-01-08T11:18:11;41.17;;;29.87;;
17169;SDS011;8700;48.222;16.342;2023-01-08T11:21:37;38.40;;;28.30;;
17169;SDS011;8700;48.222;16.342;2023-01-08T11:24:59;37.53;;;28.63;;
17169;SDS011;8700;48.222;16.342;2023-01-08T11:28:23;40.90;;;29.93;;
17169;SDS011;8700;48.222;16.342;2023-01-08T11:31:51;41.50;;;30.23;;
17169;SDS011;8700;48.222;16.342;2023-01-08T11:35:19;39.13;;;28.87;;
17169;SDS011;8700;48.222;16.342;2023-01-08T11:38:44;42.20;;;29.20;;
17169;SDS011;8700;48.222;16.342;2023-01-08T11:42:10;38.10;;;28.07;;
17169;SDS011;8700;48.222;16.342;2023-01-08T11:45:43;36.20;;;27.97;;
17169;SDS011;8700;48.222;16.342;2023-01-08T11:49:27;35.10;;;28.30;;
17169;SDS011;8700;48.222;16.342;2023-01-08T11:53:09;39.63;;;31.43;;
17169;SDS011;8700;48.222;16.342;2023-01-08T11:56:51;37.50;;;26.90;;
17169;SDS011;8700;48.222;16.342;2023-01-08T12:00:31;38.83;;;27.87;;
17169;SDS011;8700;48.222;16.342;2023-01-08T12:04:21;35.50;;;26.07;;
17169;SDS011;8700;48.222;16.342;2023-01-08T12:08:15;34.30;;;26.23;;
17169;SDS011;8700;48.222;16.342;2023-01-08T12:11:46;31.13;;;23.50;;
17169;SDS011;8700;48.222;16.342;2023-01-08T12:15:15;34.93;;;24.73;;
17169;SDS011;8700;48.222;16.342;2023-01-08T12:18:48;34.90;;;24.10;;
17169;SDS011;8700;48.222;16.342;2023-01-08T12:22:37;40.10;;;28.83;;
17169;SDS011;8700;48.222;16.342;2023-01-08T12:26:08;30.97;;;25.43;;
17169;SDS011;8700;48.222;16.342;2023-01-08T12:29:44;33.80;;;25.57;;
17169;SDS011;8700;48.222;16.342;2023-01-08T12:33:13;31.47;;;27.30;;
17169;SDS011;8700;48.222;16.342;2023-01-08T12:36:43;36.73;;;29.03;;
17169;SDS011;8700;48.222;16.342;2023-01-08T12:40:12;27.23;;;22.77;;
17169;SDS011;8700;48.222;16.342;2023-01-08T12:43:44;35.70;;;27.87;;
17169;SDS011;8700;48.222;16.342;2023-01-08T12:47:12;42.30;;;30.57;;
17169;SDS011;8700;48.222;16.342;2023-01-08T12:50:43;40.03;;;29.83;;
17169;SDS011;8700;48.222;16.342;2023-01-08T12:54:16;39.20;;;29.03;;
17169;SDS011;8700;48.222;16.342;2023-01-08T12:57:50;36.53;;;29.00;;
17169;SDS011;8700;48.222;16.342;2023-01-08T13:01:23;38.83;;;30.27;;
17169;SDS011;8700;48.222;16.342;2023-01-08T13:04:51;42.30;;;32.30;;
17169;SDS011;8700;48.222;16.342;2023-01-08T13:08:24;38.83;;;30.03;;
17169;SDS011;8700;48.222;16.342;2023-01-08T13:11:51;43.87;;;33.03;;
17169;SDS011;8700;48.222;16.342;2023-01-08T13:15:18;38.60;;;30.20;;
17169;SDS011;8700;48.222;16.342;2023-01-08T13:18:49;40.10;;;31.13;;
17169;SDS011;8700;48.222;16.342;2023-01-08T13:22:20;42.63;;;31.13;;
17169;SDS011;8700;48.222;16.342;2023-01-08T13:25:49;43.93;;;30.50;;
17169;SDS011;8700;48.222;16.342;2023-01-08T13:29:34;42.30;;;30.47;;
17169;SDS011;8700;48.222;16.342;2023-01-08T13:32:58;39.33;;;29.10;;
17169;SDS011;8700;48.222;16.342;2023-01-08T13:36:22;42.60;;;30.43;;
17169;SDS011;8700;48.222;16.342;2023-01-08T13:39:44;43.27;;;29.47;;
17169;SDS011;8700;48.222;16.342;2023-01-08T13:43:10;41.13;;;29.83;;
17169;SDS011;8700;48.222;16.342;2023-01-08T13:46:33;42.47;;;29.60;;
17169;SDS011;8700;48.222;16.342;2023-01-08T13:49:59;36.53;;;27.13;;
17169;SDS011;8700;48.222;16.342;2023-01-08T13:53:25;43.50;;;27.33;;
17169;SDS011;8700;48.222;16.342;2023-01-08T13:56:47;35.17;;;27.93;;
17169;SDS011;8700;48.222;16.342;2023-01-08T14:00:17;39.07;;;30.67;;
17169;SDS011;8700;48.222;16.342;2023-01-08T14:03:43;35.53;;;28.07;;
17169;SDS011;8700;48.222;16.342;2023-01-08T14:07:12;33.67;;;27.77;;
17169;SDS011;8700;48.222;16.342;2023-01-08T14:10:35;34.77;;;27.53;;
17169;SDS011;8700;48.222;16.342;2023-01-08T14:13:56;38.07;;;29.03;;
17169;SDS011;8700;48.222;16.342;2023-01-08T14:17:19;40.93;;;30.73;;
17169;SDS011;8700;48.222;16.342;2023-01-08T14:20:42;35.60;;;27.13;;
17169;SDS011;8700;48.222;16.342;2023-01-08T14:24:10;32.23;;;26.40;;
17169;SDS011;8700;48.222;16.342;2023-01-08T14:27:37;27.17;;;22.73;;
17169;SDS011;8700;48.222;16.342;2023-01-08T14:30:59;27.00;;;22.90;;
17169;SDS011;8700;48.222;16.342;2023-01-08T14:34:20;29.03;;;24.27;;
17169;SDS011;8700;48.222;16.342;2023-01-08T14:37:44;33.37;;;24.30;;
17169;SDS011;8700;48.222;16.342;2023-01-08T14:41:05;30.53;;;24.73;;
17169;SDS011;8700;48.222;16.342;2023-01-08T14:44:30;28.10;;;22.33;;
17169;SDS011;8700;48.222;16.342;2023-01-08T14:47:52;27.93;;;23.47;;
17169;SDS011;8700;48.222;16.342;2023-01-08T14:51:19;28.63;;;22.60;;
17169;SDS011;8700;48.222;16.342;2023-01-08T14:54:43;27.53;;;23.10;;
17169;SDS011;8700;48.222;16.342;2023-01-08T14:58:10;27.50;;;22.53;;
17169;SDS011;8700;48.222;16.342;2023-01-08T15:01:35;28.53;;;24.17;;
17169;SDS011;8700;48.222;16.342;2023-01-08T15:05:11;25.10;;;19.80;;
17169;SDS011;8700;48.222;16.342;2023-01-08T15:08:36;26.17;;;20.43;;
17169;SDS011;8700;48.222;16.342;2023-01-08T15:11:59;25.30;;;20.23;;
17169;SDS011;8700;48.222;16.342;2023-01-08T15:15:22;22.47;;;19.80;;
17169;SDS011;8700;48.222;16.342;2023-01-08T15:18:46;23.83;;;18.93;;
17169;SDS011;8700;48.222;16.342;2023-01-08T15:22:13;22.03;;;19.40;;
17169;SDS011;8700;48.222;16.342;2023-01-08T15:25:37;24.57;;;20.23;;
17169;SDS011;8700;48.222;16.342;2023-01-08T15:28:59;23.67;;;20.43;;
17169;SDS011;8700;48.222;16.342;2023-01-08T15:32:22;22.87;;;20.33;;
17169;SDS011;8700;48.222;16.342;2023-01-08T15:35:44;27.33;;;23.13;;
17169;SDS011;8700;48.222;16.342;2023-01-08T15:39:07;24.97;;;20.40;;
17169;SDS011;8700;48.222;16.342;2023-01-08T15:42:34;27.10;;;22.30;;
17169;SDS011;8700;48.222;16.342;2023-01-08T15:46:13;30.77;;;23.90;;
17169;SDS011;8700;48.222;16.342;2023-01-08T15:49:34;27.63;;;22.33;;
17169;SDS011;8700;48.222;16.342;2023-01-08T15:52:57;23.17;;;20.17;;
17169;SDS011;8700;48.222;16.342;2023-01-08T15:56:28;28.67;;;22.23;;
17169;SDS011;8700;48.222;16.342;2023-01-08T15:59:49;29.70;;;23.23;;
17169;SDS011;8700;48.222;16.342;2023-01-08T16:03:14;28.20;;;23.37;;
17169;SDS011;8700;48.222;16.342;2023-01-08T16:06:38;29.23;;;22.37;;
17169;SDS011;8700;48.222;16.342;2023-01-08T16:10:02;29.63;;;23.83;;
17169;SDS011;8700;48.222;16.342;2023-01-08T16:13:28;32.37;;;24.67;;
17169;SDS011;8700;48.222;16.342;2023-01-08T16:16:49;30.80;;;25.23;;
17169;SDS011;8700;48.222;16.342;2023-01-08T16:20:14;31.97;;;24.77;;
17169;SDS011;8700;48.222;16.342;2023-01-08T16:23:42;33.83;;;24.90;;
17169;SDS011;8700;48.222;16.342;2023-01-08T16:27:12;32.07;;;24.73;;
17169;SDS011;8700;48.222;16.342;2023-01-08T16:30:33;44.53;;;34.03;;
17169;SDS011;8700;48.222;16.342;2023-01-08T16:33:59;39.40;;;29.60;;
17169;SDS011;8700;48.222;16.342;2023-01-08T16:37:21;35.93;;;27.17;;
17169;SDS011;8700;48.222;16.342;2023-01-08T16:40:42;32.23;;;24.90;;
17169;SDS011;8700;48.222;16.342;2023-01-08T16:44:05;30.33;;;24.50;;
17169;SDS011;8700;48.222;16.342;2023-01-08T16:47:26;35.40;;;26.97;;
17169;SDS011;8700;48.222;16.342;2023-01-08T16:50:47;37.73;;;28.03;;
17169;SDS011;8700;48.222;16.342;2023-01-08T16:54:10;30.10;;;25.27;;
17169;SDS011;8700;48.222;16.342;2023-01-08T16:57:31;30.20;;;23.87;;
17169;SDS011;8700;48.222;16.342;2023-01-08T17:00:54;25.83;;;21.27;;
17169;SDS011;8700;48.222;16.342;2023-01-08T17:04:16;26.87;;;22.07;;
17169;SDS011;8700;48.222;16.342;2023-01-08T17:07:37;24.60;;;20.50;;
17169;SDS011;8700;48.222;16.342;2023-01-08T17:10:58;27.83;;;22.37;;
17169;SDS011;8700;48.222;16.342;2023-01-08T17:14:20;26.77;;;20.57;;
17169;SDS011;8700;48.222;16.342;2023-01-08T17:17:42;29.03;;;23.07;;
17169;SDS011;8700;48.222;16.342;2023-01-08T17:21:04;26.97;;;20.67;;
17169;SDS011;8700;48.222;16.342;2023-01-08T17:24:26;25.67;;;22.03;;
17169;SDS011;8700;48.222;16.342;2023-01-08T17:27:48;24.73;;;19.87;;
17169;SDS011;8700;48.222;16.342;2023-01-08T17:31:10;28.50;;;21.90;;
17169;SDS011;8700;48.222;16.342;2023-01-08T17:34:34;28.00;;;21.50;;
17169;SDS011;8700;48.222;16.342;2023-01-08T17:37:55;25.97;;;21.33;;
17169;SDS011;8700;48.222;16.342;2023-01-08T17:41:17;27.90;;;22.67;;
17169;SDS011;8700;48.222;16.342;2023-01-08T17:44:56;24.13;;;20.77;;
17169;SDS011;8700;48.222;16.342;2023-01-08T17:48:21;26.17;;;21.73;;
17169;SDS011;8700;48.222;16.342;2023-01-08T17:51:43;25.93;;;21.27;;
17169;SDS011;8700;48.222;16.342;2023-01-08T17:55:05;25.40;;;21.63;;
17169;SDS011;8700;48.222;16.342;2023-01-08T17:58:27;26.57;;;20.87;;
17169;SDS011;8700;48.222;16.342;2023-01-08T18:01:50;28.83;;;22.90;;
17169;SDS011;8700;48.222;16.342;2023-01-08T18:05:12;27.63;;;21.37;;
17169;SDS011;8700;48.222;16.342;2023-01-08T18:08:35;36.23;;;31.33;;
17169;SDS011;8700;48.222;16.342;2023-01-08T18:12:01;27.90;;;21.50;;
17169;SDS011;8700;48.222;16.342;2023-01-08T18:15:26;24.20;;;21.67;;
17169;SDS011;8700;48.222;16.342;2023-01-08T18:18:56;24.00;;;21.43;;
17169;SDS011;8700;48.222;16.342;2023-01-08T18:22:24;25.57;;;21.77;;
17169;SDS011;8700;48.222;16.342;2023-01-08T18:25:49;28.10;;;24.03;;
17169;SDS011;8700;48.222;16.342;2023-01-08T18:29:13;28.00;;;25.03;;
17169;SDS011;8700;48.222;16.342;2023-01-08T18:32:35;28.70;;;22.47;;
17169;SDS011;8700;48.222;16.342;2023-01-08T18:35:59;29.70;;;23.47;;
17169;SDS011;8700;48.222;16.342;2023-01-08T18:39:24;26.77;;;23.57;;
17169;SDS011;8700;48.222;16.342;2023-01-08T18:42:51;23.00;;;20.53;;
17169;SDS011;8700;48.222;16.342;2023-01-08T18:46:18;24.37;;;20.57;;
17169;SDS011;8700;48.222;16.342;2023-01-08T18:49:40;25.10;;;22.40;;
17169;SDS011;8700;48.222;16.342;2023-01-08T18:53:01;23.63;;;21.20;;
17169;SDS011;8700;48.222;16.342;2023-01-08T18:56:25;24.37;;;21.77;;
17169;SDS011;8700;48.222;16.342;2023-01-08T18:59:50;22.47;;;20.13;;
17169;SDS011;8700;48.222;16.342;2023-01-08T19:03:11;23.73;;;20.77;;
17169;SDS011;8700;48.222;16.342;2023-01-08T19:06:32;22.13;;;18.83;;
17169;SDS011;8700;48.222;16.342;2023-01-08T19:09:54;25.07;;;22.27;;
17169;SDS011;8700;48.222;16.342;2023-01-08T19:13:15;23.77;;;21.13;;
17169;SDS011;8700;48.222;16.342;2023-01-08T19:16:39;24.93;;;21.33;;
17169;SDS011;8700;48.222;16.342;2023-01-08T19:20:07;23.27;;;20.80;;
17169;SDS011;8700;48.222;16.342;2023-01-08T19:23:29;23.03;;;20.60;;
17169;SDS011;8700;48.222;16.342;2023-01-08T19:26:50;24.37;;;21.07;;
17169;SDS011;8700;48.222;16.342;2023-01-08T19:30:12;29.80;;;21.93;;
17169;SDS011;8700;48.222;16.342;2023-01-08T19:33:35;22.27;;;19.30;;
17169;SDS011;8700;48.222;16.342;2023-01-08T19:36:59;24.87;;;22.17;;
17169;SDS011;8700;48.222;16.342;2023-01-08T19:40:20;23.27;;;20.83;;
17169;SDS011;8700;48.222;16.342;2023-01-08T19:43:42;24.93;;;22.20;;
17169;SDS011;8700;48.222;16.342;2023-01-08T19:47:02;25.00;;;21.33;;
17169;SDS011;8700;48.222;16.342;2023-01-08T19:50:25;26.77;;;23.33;;
17169;SDS011;8700;48.222;16.342;2023-01-08T19:53:48;27.40;;;24.53;;
17169;SDS011;8700;48.222;16.342;2023-01-08T19:57:09;33.10;;;23.90;;